createdAt,value
2018-07-20T00:03:50.358Z,85.90
2018-07-20T00:08:55.245Z,85.90
2018-07-20T00:13:59.932Z,85.90
2018-07-20T00:19:04.886Z,85.30
2018-07-20T00:24:09.719Z,85.50
2018-07-20T00:29:14.353Z,85.60
2018-07-20T00:34:19.068Z,86.60
2018-07-20T00:39:23.703Z,87.70
2018-07-20T00:44:28.348Z,88.10
2018-07-20T00:49:32.961Z,88.50
2018-07-20T00:54:37.750Z,86.90
2018-07-20T00:59:42.384Z,88.50
2018-07-20T01:04:47.508Z,87.50
2018-07-20T01:09:52.079Z,88.70
2018-07-20T01:14:56.645Z,89.10
2018-07-20T01:20:01.827Z,88.90
2018-07-20T01:25:06.464Z,89.40
2018-07-20T01:30:11.174Z,89.70
2018-07-20T01:35:15.917Z,90.20
2018-07-20T01:40:20.801Z,88.90
2018-07-20T01:45:25.430Z,89.00
2018-07-20T01:50:30.117Z,88.60
2018-07-20T01:55:35.280Z,88.10
2018-07-20T02:00:39.987Z,88.00
2018-07-20T02:05:45.110Z,88.90
2018-07-20T02:10:57.721Z,88.60
2018-07-20T02:16:02.347Z,88.80
2018-07-20T02:21:07.092Z,88.70
2018-07-20T02:26:11.631Z,88.80
2018-07-20T02:31:16.403Z,88.60
2018-07-20T02:36:21.226Z,89.50
2018-07-20T02:41:26.067Z,89.70
2018-07-20T02:46:30.987Z,89.80
2018-07-20T02:51:35.787Z,90.30
2018-07-20T02:56:40.730Z,91.20
2018-07-20T03:01:45.920Z,91.20
2018-07-20T03:06:51.085Z,92.00
2018-07-20T03:11:55.730Z,91.80
2018-07-20T03:17:00.487Z,91.80
2018-07-20T03:22:05.106Z,92.00
2018-07-20T03:27:09.729Z,92.30
2018-07-20T03:32:14.571Z,92.70
2018-07-20T03:37:19.169Z,92.60
2018-07-20T03:42:24.676Z,93.00
2018-07-20T03:47:29.915Z,93.00
2018-07-20T03:52:35.060Z,93.10
2018-07-20T03:57:40.309Z,93.50
2018-07-20T04:02:45.135Z,93.60
2018-07-20T04:07:49.528Z,95.00
2018-07-20T04:12:55.162Z,95.50
2018-07-20T04:18:00.639Z,95.10
2018-07-20T04:28:09.252Z,93.80
2018-07-20T04:33:13.927Z,92.90
2018-07-20T04:43:23.510Z,91.40
2018-07-20T04:48:28.215Z,91.10
2018-07-20T04:58:37.995Z,90.70
2018-07-20T05:03:42.651Z,90.70
2018-07-20T05:08:47.209Z,90.50
2018-07-20T05:13:52.358Z,90.60
2018-07-20T05:18:56.992Z,90.60
2018-07-20T05:24:01.767Z,90.90
2018-07-20T05:29:06.855Z,90.90
2018-07-20T05:34:11.714Z,91.10
2018-07-20T05:39:16.435Z,91.10
2018-07-20T05:44:21.925Z,91.00
2018-07-20T05:49:26.581Z,90.10
2018-07-20T05:54:31.583Z,88.00
2018-07-20T05:59:36.152Z,88.20
2018-07-20T06:04:40.744Z,88.20
2018-07-20T06:09:45.594Z,88.10
2018-07-20T06:14:50.015Z,88.10
2018-07-20T06:19:54.895Z,87.80
2018-07-20T06:24:59.580Z,87.20
2018-07-20T06:30:05.347Z,86.80
2018-07-20T06:35:10.023Z,86.40
2018-07-20T06:40:14.771Z,85.90
2018-07-20T06:45:19.653Z,85.10
2018-07-20T06:50:24.324Z,82.90
2018-07-20T06:55:28.973Z,81.80
2018-07-20T07:00:33.446Z,82.70
2018-07-20T07:05:37.975Z,81.40
2018-07-20T07:10:42.516Z,82.70
2018-07-20T07:15:47.336Z,83.70
2018-07-20T07:20:51.957Z,81.90
2018-07-20T07:25:56.616Z,82.10
2018-07-20T07:31:01.298Z,80.90
2018-07-20T07:36:05.988Z,80.60
2018-07-20T07:41:10.684Z,80.30
2018-07-20T07:46:15.353Z,80.90
2018-07-20T07:51:19.978Z,81.20
2018-07-20T07:56:25.121Z,80.40
2018-07-20T08:01:30.722Z,79.70
2018-07-20T08:06:35.241Z,81.30
2018-07-20T08:11:40.714Z,80.40
2018-07-20T08:16:45.496Z,81.10
2018-07-20T08:21:50.364Z,80.20
2018-07-20T08:26:55.192Z,79.00
2018-07-20T08:31:59.826Z,79.00
2018-07-20T08:37:04.442Z,78.70
2018-07-20T08:42:09.240Z,79.80
2018-07-20T08:47:20.470Z,80.90
2018-07-20T08:52:26.329Z,79.80
2018-07-20T08:57:32.574Z,78.10
2018-07-20T09:02:37.417Z,78.40
2018-07-20T09:07:42.275Z,77.70
2018-07-20T09:12:47.402Z,76.50
2018-07-20T09:17:52.194Z,77.20
2018-07-20T09:22:57.032Z,76.80
2018-07-20T09:28:02.928Z,77.70
2018-07-20T09:33:07.346Z,77.50
2018-07-20T09:38:12.274Z,77.30
2018-07-20T09:43:17.468Z,76.10
2018-07-20T09:48:22.951Z,76.70
2018-07-20T09:53:27.794Z,75.50
2018-07-20T09:58:32.563Z,74.90
2018-07-20T10:03:37.229Z,72.70
2018-07-20T10:08:41.988Z,71.80
2018-07-20T10:13:46.641Z,72.20
2018-07-20T10:18:52.102Z,72.40
2018-07-20T10:23:57.497Z,71.90
2018-07-20T10:29:02.292Z,72.00
2018-07-20T10:34:07.796Z,71.90
2018-07-20T10:39:12.649Z,71.40
2018-07-20T10:44:17.217Z,69.90
2018-07-20T10:49:22.021Z,69.20
2018-07-20T10:54:26.882Z,71.80
2018-07-20T10:59:32.803Z,71.50
2018-07-20T11:04:37.553Z,71.10
2018-07-20T11:09:42.293Z,72.40
2018-07-20T11:14:47.043Z,71.30
2018-07-20T11:19:52.210Z,70.70
2018-07-20T11:24:56.888Z,71.40
2018-07-20T11:30:01.513Z,70.90
2018-07-20T11:35:06.290Z,70.00
2018-07-20T11:40:10.908Z,69.50
2018-07-20T11:45:15.655Z,68.30
2018-07-20T11:50:20.389Z,67.40
2018-07-20T11:55:25.165Z,64.80
2018-07-20T12:00:30.057Z,65.10
2018-07-20T12:05:34.790Z,63.60
2018-07-20T12:10:39.445Z,63.80
2018-07-20T12:15:44.891Z,61.80
2018-07-20T12:20:49.615Z,59.30
2018-07-20T12:25:54.704Z,56.90
2018-07-20T12:30:59.344Z,56.00
2018-07-20T12:36:04.238Z,57.10
2018-07-20T12:41:09.322Z,57.40
2018-07-20T12:46:13.912Z,55.50
2018-07-20T12:51:19.480Z,55.20
2018-07-20T12:56:23.993Z,56.80
2018-07-20T13:01:28.756Z,56.50
2018-07-20T13:06:33.829Z,56.10
2018-07-20T13:11:38.325Z,55.50
2018-07-20T13:16:43.912Z,55.70
2018-07-20T13:21:48.726Z,57.10
2018-07-20T13:26:53.974Z,65.00
2018-07-20T13:31:58.895Z,66.50
2018-07-20T13:37:03.609Z,64.70
2018-07-20T13:42:08.339Z,70.30
2018-07-20T13:47:12.868Z,71.20
2018-07-20T13:52:17.439Z,74.50
2018-07-20T13:57:22.356Z,72.50
2018-07-20T14:02:27.090Z,70.70
2018-07-20T14:07:32.160Z,71.30
2018-07-20T14:12:36.857Z,68.10
2018-07-20T14:17:41.621Z,72.20
2018-07-20T14:22:46.250Z,72.50
2018-07-20T14:27:51.138Z,73.80
2018-07-20T14:32:55.835Z,69.90
2018-07-20T14:38:01.074Z,69.40
2018-07-20T14:43:05.843Z,71.20
2018-07-20T14:48:10.457Z,66.10
2018-07-20T14:53:15.061Z,70.90
2018-07-20T14:58:19.822Z,66.00
2018-07-20T15:03:24.446Z,65.40
2018-07-20T15:08:29.162Z,67.10
2018-07-20T15:13:33.755Z,66.70
2018-07-20T15:18:38.657Z,66.40
2018-07-20T15:23:43.387Z,66.80
2018-07-20T15:28:48.226Z,65.70
2018-07-20T15:33:52.826Z,64.60
2018-07-20T15:38:57.542Z,63.90
2018-07-20T15:44:02.223Z,64.80
2018-07-20T15:49:06.951Z,65.30
2018-07-20T15:54:11.688Z,63.90
2018-07-20T15:59:16.410Z,64.30
2018-07-20T16:04:20.839Z,63.20
2018-07-20T16:09:25.575Z,63.70
2018-07-20T16:14:30.441Z,65.10
2018-07-20T16:19:34.944Z,66.40
2018-07-20T16:24:39.826Z,67.70
2018-07-20T16:29:44.541Z,67.60
2018-07-20T16:34:49.049Z,67.10
2018-07-20T16:39:53.920Z,67.40
2018-07-20T16:44:58.624Z,72.90
2018-07-20T16:50:04.110Z,74.00
2018-07-20T16:55:08.991Z,74.70
2018-07-20T17:00:13.953Z,76.80
2018-07-20T17:05:18.726Z,78.70
2018-07-20T17:10:23.584Z,80.40
2018-07-20T17:15:28.167Z,80.90
2018-07-20T17:20:32.803Z,80.40
2018-07-20T17:25:37.435Z,80.10
2018-07-20T17:30:42.272Z,81.10
2018-07-20T17:35:46.927Z,81.60
2018-07-20T17:40:51.769Z,80.60
2018-07-20T17:45:56.499Z,81.20
2018-07-20T17:51:01.213Z,80.40
2018-07-20T17:56:06.382Z,75.40
2018-07-20T18:01:11.338Z,73.80
2018-07-20T18:06:16.003Z,74.00
2018-07-20T18:11:21.172Z,73.80
2018-07-20T18:16:25.807Z,74.00
2018-07-20T18:26:35.161Z,74.90
2018-07-20T18:31:39.518Z,75.20
2018-07-20T18:36:43.951Z,75.50
2018-07-20T18:41:48.772Z,76.20
2018-07-20T18:46:53.608Z,77.00
2018-07-20T18:51:59.084Z,77.80
2018-07-20T18:57:03.703Z,78.00
2018-07-20T19:02:09.109Z,78.20
2018-07-20T19:07:13.763Z,79.20
2018-07-20T19:12:18.349Z,79.10
2018-07-20T19:17:24.213Z,78.70
2018-07-20T19:22:28.937Z,79.60
2018-07-20T19:27:33.804Z,79.90
2018-07-20T19:32:38.441Z,81.50
2018-07-20T19:37:43.020Z,83.50
2018-07-20T19:42:47.891Z,83.40
2018-07-20T19:47:53.239Z,83.50
2018-07-20T19:52:57.977Z,84.30
2018-07-20T19:58:02.585Z,84.10
2018-07-20T20:03:07.216Z,85.50
2018-07-20T20:08:11.906Z,84.80
2018-07-20T20:13:16.640Z,82.50
2018-07-20T20:18:21.348Z,81.80
2018-07-20T20:23:26.318Z,82.10
2018-07-20T20:28:31.173Z,83.10
2018-07-20T20:33:36.218Z,83.70
2018-07-20T20:38:41.671Z,84.40
2018-07-20T20:43:46.650Z,85.10
2018-07-20T20:48:51.939Z,85.70
2018-07-20T20:53:56.744Z,85.80
2018-07-20T20:59:01.579Z,86.90
2018-07-20T21:04:06.880Z,89.60
2018-07-20T21:09:11.780Z,90.90
2018-07-20T21:14:16.706Z,90.60
2018-07-20T21:19:21.659Z,90.90
2018-07-20T21:24:27.006Z,90.60
2018-07-20T21:29:31.934Z,91.00
2018-07-20T21:34:37.042Z,91.20
2018-07-20T21:39:42.518Z,91.00
2018-07-20T21:44:47.169Z,91.60
2018-07-20T21:49:52.235Z,92.10
2018-07-20T21:54:57.502Z,92.60
2018-07-20T22:00:03.035Z,92.60
2018-07-20T22:05:07.893Z,92.80
2018-07-20T22:10:12.974Z,92.00
2018-07-20T22:20:22.283Z,88.20
2018-07-20T22:25:26.977Z,88.50
2018-07-20T22:30:31.434Z,88.70
2018-07-20T22:35:36.297Z,89.60
2018-07-20T22:40:40.863Z,89.50
2018-07-20T22:45:45.398Z,89.70
2018-07-20T22:50:50.177Z,89.70
2018-07-20T22:55:55.193Z,89.60
2018-07-20T23:00:59.932Z,90.10
2018-07-20T23:11:08.813Z,90.90
2018-07-20T23:16:14.043Z,90.90
2018-07-20T23:21:18.554Z,91.20
2018-07-20T23:26:24.014Z,91.40
2018-07-20T23:31:29.503Z,91.40
2018-07-20T23:36:34.870Z,91.40
2018-07-20T23:41:39.590Z,91.30
2018-07-20T23:46:44.434Z,91.40
2018-07-20T23:51:49.255Z,91.50
2018-07-20T23:56:53.944Z,91.60
